createdAt,value
2019-04-14T00:04:22.593Z,43.01
2019-04-14T00:09:27.231Z,43.03
2019-04-14T00:14:31.511Z,43.03
2019-04-14T00:19:35.033Z,43.04
2019-04-14T00:24:38.532Z,43.03
2019-04-14T00:29:42.000Z,43.04
2019-04-14T00:35:02.295Z,43.03
2019-04-14T00:40:12.910Z,43.06
2019-04-14T00:45:31.954Z,43.12
2019-04-14T00:50:26.070Z,43.13
2019-04-14T00:55:29.529Z,43.12
2019-04-14T01:00:34.114Z,43.09
2019-04-14T01:05:37.747Z,43.09
2019-04-14T01:10:41.247Z,43.08
2019-04-14T01:15:51.487Z,43.06
2019-04-14T01:20:49.858Z,43.10
2019-04-14T01:25:54.222Z,43.08
2019-04-14T01:30:58.934Z,43.09
2019-04-14T01:36:02.494Z,43.06
2019-04-14T01:41:06.428Z,43.05
2019-04-14T01:46:16.584Z,43.03
2019-04-14T01:51:33.062Z,43.00
2019-04-14T01:56:44.925Z,43.01
2019-04-14T02:01:50.087Z,43.01
2019-04-14T02:06:53.553Z,43.07
2019-04-14T02:11:57.483Z,43.09
2019-04-14T02:17:03.138Z,43.08
2019-04-14T02:22:07.351Z,43.06
2019-04-14T02:27:11.961Z,43.03
2019-04-14T02:32:42.517Z,43.07
2019-04-14T02:42:55.880Z,43.10
2019-04-14T02:53:07.703Z,43.10
2019-04-14T02:58:16.454Z,43.14
2019-04-14T03:03:16.039Z,43.15
2019-04-14T03:08:25.595Z,43.15
2019-04-14T03:28:46.019Z,43.11
2019-04-14T03:39:00.067Z,43.12
2019-04-14T03:43:57.702Z,43.11
2019-04-14T03:49:10.028Z,43.13
2019-04-14T03:54:06.197Z,43.13
2019-04-14T03:58:49.045Z,43.13
2019-04-14T04:03:52.525Z,43.14
2019-04-14T04:08:56.031Z,43.13
2019-04-14T04:14:00.618Z,43.12
2019-04-14T04:19:13.487Z,43.11
2019-04-14T04:24:29.251Z,43.11
2019-04-14T04:29:42.617Z,43.14
2019-04-14T04:34:47.717Z,43.12
2019-04-14T04:39:56.154Z,43.12
2019-04-14T04:44:59.677Z,43.07
2019-04-14T04:50:04.346Z,43.07
2019-04-14T04:55:08.877Z,43.07
2019-04-14T05:00:13.454Z,43.06
2019-04-14T05:05:53.603Z,43.08
2019-04-14T05:11:01.191Z,43.12
2019-04-14T05:16:04.653Z,43.09
2019-04-14T05:21:08.215Z,43.07
2019-04-14T05:26:11.650Z,43.07
2019-04-14T05:31:16.358Z,43.10
2019-04-14T05:36:19.955Z,43.07
2019-04-14T05:41:24.446Z,43.06
2019-04-14T05:46:27.961Z,43.06
2019-04-14T05:51:32.522Z,43.06
2019-04-14T05:56:37.644Z,43.04
2019-04-14T06:01:42.076Z,43.03
2019-04-14T06:06:45.593Z,43.01
2019-04-14T06:11:49.053Z,42.97
2019-04-14T06:16:52.512Z,42.96
2019-04-14T06:21:55.968Z,42.96
2019-04-14T06:26:59.423Z,42.94
2019-04-14T06:32:04.522Z,42.97
2019-04-14T06:37:12.262Z,42.93
2019-04-14T06:42:15.731Z,42.93
2019-04-14T06:47:19.194Z,42.92
2019-04-14T06:52:22.654Z,42.89
2019-04-14T06:57:26.112Z,42.88
2019-04-14T07:02:29.580Z,42.85
2019-04-14T07:07:33.038Z,34.61
2019-04-14T07:12:36.497Z,33.73
2019-04-14T07:17:39.953Z,33.73
2019-04-14T07:22:43.412Z,34.64
2019-04-14T07:27:46.873Z,35.22
2019-04-14T07:32:51.974Z,36.07
2019-04-14T07:38:03.017Z,36.72
2019-04-14T07:43:10.990Z,37.38
2019-04-14T07:48:18.802Z,37.86
2019-04-14T07:53:23.904Z,38.26
2019-04-14T07:58:45.331Z,38.59
2019-04-14T08:03:56.118Z,38.86
2019-04-14T08:08:59.588Z,39.18
2019-04-14T08:14:03.118Z,39.49
2019-04-14T08:19:06.579Z,39.75
2019-04-14T08:24:10.036Z,39.92
2019-04-14T08:29:13.494Z,40.08
2019-04-14T08:34:16.949Z,40.30
2019-04-14T08:39:20.416Z,40.56
2019-04-14T08:44:25.513Z,40.80
2019-04-14T08:49:39.906Z,41.01
2019-04-14T08:54:56.949Z,41.25
2019-04-14T09:00:07.549Z,41.41
2019-04-14T09:05:12.829Z,41.67
2019-04-14T09:10:20.594Z,41.82
2019-04-14T09:15:24.059Z,41.95
2019-04-14T09:20:27.598Z,42.08
2019-04-14T09:25:31.042Z,42.21
2019-04-14T09:30:34.501Z,42.27
2019-04-14T09:35:37.971Z,42.33
2019-04-14T09:40:41.453Z,42.40
2019-04-14T09:45:44.920Z,42.50
2019-04-14T09:50:48.377Z,42.52
2019-04-14T09:55:51.839Z,42.63
2019-04-14T10:00:55.303Z,42.66
2019-04-14T10:05:58.764Z,42.60
2019-04-14T10:11:02.232Z,42.58
2019-04-14T10:16:05.689Z,42.47
2019-04-14T10:21:17.322Z,42.43
2019-04-14T10:26:14.349Z,42.35
2019-04-14T10:31:17.815Z,42.36
2019-04-14T10:36:21.279Z,42.37
2019-04-14T10:41:24.742Z,42.53
2019-04-14T10:46:28.213Z,42.70
2019-04-14T10:51:34.055Z,42.77
2019-04-14T10:56:36.878Z,42.67
2019-04-14T11:01:40.387Z,42.60
2019-04-14T11:06:51.665Z,42.43
2019-04-14T11:11:55.125Z,42.05
2019-04-14T11:16:58.594Z,41.72
2019-04-14T11:22:02.135Z,41.44
2019-04-14T11:27:05.602Z,41.12
2019-04-14T11:32:28.674Z,40.82
2019-04-14T11:37:33.792Z,40.52
2019-04-14T11:42:37.247Z,40.32
2019-04-14T11:47:40.720Z,40.46
2019-04-14T11:52:44.184Z,40.44
2019-04-14T11:57:47.641Z,40.40
2019-04-14T12:03:08.958Z,40.25
2019-04-14T12:08:14.070Z,40.18
2019-04-14T12:13:17.532Z,40.18
2019-04-14T12:18:20.994Z,39.81
2019-04-14T12:23:24.453Z,39.66
2019-04-14T12:28:28.452Z,39.50
2019-04-14T12:33:32.064Z,39.37
2019-04-14T12:38:35.592Z,39.27
2019-04-14T12:43:43.615Z,39.19
2019-04-14T12:48:51.134Z,39.08
2019-04-14T12:53:54.601Z,38.97
2019-04-14T12:58:59.972Z,38.90
2019-04-14T13:04:03.433Z,38.84
2019-04-14T13:09:07.535Z,38.75
2019-04-14T13:14:11.010Z,38.68
2019-04-14T13:19:14.588Z,38.80
2019-04-14T13:24:18.050Z,39.01
2019-04-14T13:29:21.515Z,39.31
2019-04-14T13:34:24.973Z,39.75
2019-04-14T13:39:28.465Z,39.96
2019-04-14T13:44:32.024Z,40.10
2019-04-14T13:49:37.062Z,40.18
2019-04-14T13:54:40.548Z,40.27
2019-04-14T13:59:44.014Z,40.35
2019-04-14T14:04:47.477Z,40.40
2019-04-14T14:09:51.207Z,40.50
2019-04-14T14:14:56.309Z,40.53
2019-04-14T14:20:17.604Z,40.58
2019-04-14T14:25:22.696Z,40.63
2019-04-14T14:30:34.883Z,40.67
2019-04-14T14:35:38.357Z,40.72
2019-04-14T14:40:41.821Z,40.75
2019-04-14T14:45:52.633Z,40.79
2019-04-14T14:51:09.872Z,40.83
2019-04-14T14:56:13.318Z,40.85
2019-04-14T15:01:16.778Z,40.93
2019-04-14T15:06:20.646Z,40.96
2019-04-14T15:11:24.108Z,41.04
2019-04-14T15:16:27.733Z,41.08
2019-04-14T15:21:31.199Z,41.09
2019-04-14T15:26:34.657Z,41.19
2019-04-14T15:31:38.161Z,41.23
2019-04-14T15:36:41.621Z,41.25
2019-04-14T15:41:45.150Z,41.32
2019-04-14T15:46:48.611Z,41.41
2019-04-14T15:51:52.070Z,41.47
2019-04-14T15:57:02.857Z,41.52
2019-04-14T16:02:13.777Z,41.55
2019-04-14T16:07:24.617Z,41.59
2019-04-14T16:12:29.714Z,41.64
2019-04-14T16:17:34.808Z,41.71
2019-04-14T16:22:39.136Z,41.72
2019-04-14T16:27:44.284Z,41.75
2019-04-14T16:33:05.682Z,41.82
2019-04-14T16:38:09.141Z,41.86
2019-04-14T16:43:12.592Z,41.91
2019-04-14T16:48:16.049Z,41.97
2019-04-14T16:53:30.115Z,42.02
2019-04-14T16:58:38.423Z,42.10
2019-04-14T17:03:41.876Z,42.14
2019-04-14T17:08:45.337Z,42.17
2019-04-14T17:13:52.862Z,42.21
2019-04-14T17:19:12.658Z,42.30
2019-04-14T17:24:17.767Z,42.39
2019-04-14T17:29:22.872Z,42.44
2019-04-14T17:34:28.005Z,42.46
2019-04-14T17:39:38.802Z,42.45
2019-04-14T17:44:43.901Z,42.66
2019-04-14T17:49:51.707Z,42.66
2019-04-14T17:55:09.057Z,42.56
2019-04-14T18:00:14.388Z,42.59
2019-04-14T18:05:35.853Z,42.61
2019-04-14T18:10:40.953Z,42.63
2019-04-14T18:15:52.063Z,42.63
2019-04-14T18:20:57.159Z,42.68
2019-04-14T18:26:00.791Z,42.73
2019-04-14T18:31:05.888Z,42.76
2019-04-14T18:36:16.545Z,42.77
2019-04-14T18:41:24.611Z,42.81
2019-04-14T18:46:29.726Z,42.84
2019-04-14T18:51:34.852Z,42.89
2019-04-14T18:56:48.452Z,42.93
2019-04-14T19:01:53.553Z,42.83
2019-04-14T19:06:57.058Z,42.83
2019-04-14T19:12:05.512Z,43.05
2019-04-14T19:17:19.383Z,43.10
2019-04-14T19:22:22.870Z,43.11
2019-04-14T19:27:26.357Z,43.19
2019-04-14T19:32:29.830Z,43.19
2019-04-14T19:37:33.325Z,43.22
2019-04-14T19:42:36.801Z,43.24
2019-04-14T19:47:40.284Z,43.24
2019-04-14T19:52:43.763Z,43.29
2019-04-14T19:57:47.249Z,43.30
2019-04-14T20:02:50.725Z,43.33
2019-04-14T20:07:54.204Z,43.38
2019-04-14T20:12:57.958Z,43.40
2019-04-14T20:18:15.098Z,43.37
2019-04-14T20:23:22.917Z,43.34
2019-04-14T20:28:31.217Z,43.34
2019-04-14T20:33:34.694Z,43.33
2019-04-14T20:38:38.196Z,43.37
2019-04-14T20:43:41.676Z,43.36
2019-04-14T20:48:45.211Z,43.38
2019-04-14T20:53:48.670Z,43.40
2019-04-14T20:58:52.149Z,43.42
2019-04-14T21:04:00.026Z,43.45
2019-04-14T21:09:17.306Z,43.49
2019-04-14T21:14:25.233Z,43.50
2019-04-14T21:19:36.577Z,43.52
2019-04-14T21:24:50.930Z,43.55
2019-04-14T21:29:58.971Z,43.73
2019-04-14T21:35:06.469Z,43.78
2019-04-14T21:40:17.263Z,43.82
2019-04-14T21:45:20.734Z,43.85
2019-04-14T21:50:24.215Z,43.84
2019-04-14T21:55:27.697Z,43.86
2019-04-14T22:00:53.393Z,43.89
2019-04-14T22:05:58.511Z,43.89
2019-04-14T22:11:03.797Z,43.92
2019-04-14T22:16:07.274Z,43.91
2019-04-14T22:21:10.747Z,43.90
2019-04-14T22:26:25.496Z,43.90
2019-04-14T22:31:20.158Z,43.90
2019-04-14T22:36:23.638Z,43.91
2019-04-14T22:41:27.116Z,43.90
2019-04-14T22:46:30.577Z,43.92
2019-04-14T22:51:34.075Z,43.88
2019-04-14T22:56:39.550Z,43.89
2019-04-14T23:01:44.322Z,43.86
2019-04-14T23:07:05.452Z,43.86
2019-04-14T23:12:22.559Z,43.87
2019-04-14T23:17:33.316Z,43.84
2019-04-14T23:22:54.797Z,43.86
2019-04-14T23:27:58.259Z,43.86
2019-04-14T23:33:01.724Z,43.84
2019-04-14T23:38:05.204Z,43.86
2019-04-14T23:43:08.653Z,43.85
2019-04-14T23:48:12.117Z,43.84
2019-04-14T23:53:15.584Z,43.81
2019-04-14T23:58:19.047Z,43.81
